createdAt,value
2023-02-27T00:00:33.236Z,11.13
2023-02-27T00:03:20.910Z,10.68
2023-02-27T00:05:48.960Z,10.85
2023-02-27T00:08:16.414Z,10.10
2023-02-27T00:10:44.231Z,8.27
2023-02-27T00:13:11.660Z,5.65
2023-02-27T00:15:41.064Z,5.90
2023-02-27T00:18:08.701Z,4.00
2023-02-27T00:20:38.345Z,4.75
2023-02-27T00:23:07.947Z,4.47
2023-02-27T00:25:36.610Z,3.00
2023-02-27T00:28:05.034Z,2.80
2023-02-27T00:30:33.050Z,3.60
2023-02-27T00:33:00.739Z,2.78
2023-02-27T00:35:28.726Z,2.92
2023-02-27T00:37:56.783Z,2.47
2023-02-27T00:40:25.546Z,2.13
2023-02-27T00:42:53.605Z,1.85
2023-02-27T00:45:21.684Z,1.77
2023-02-27T00:47:49.239Z,1.85
2023-02-27T00:50:17.237Z,2.05
2023-02-27T00:52:44.819Z,2.38
2023-02-27T00:55:12.893Z,1.70
2023-02-27T00:57:40.750Z,1.48
2023-02-27T01:00:10.726Z,2.08
2023-02-27T01:02:39.155Z,1.70
2023-02-27T01:05:09.354Z,2.13
2023-02-27T01:07:37.689Z,2.25
2023-02-27T01:10:07.646Z,1.75
2023-02-27T01:15:06.116Z,1.50
2023-02-27T01:17:33.835Z,1.52
2023-02-27T01:20:01.982Z,5.88
2023-02-27T01:22:29.402Z,2.10
2023-02-27T01:24:57.311Z,3.35
2023-02-27T01:27:24.844Z,2.72
2023-02-27T01:29:52.695Z,2.70
2023-02-27T01:32:20.335Z,3.08
2023-02-27T01:34:48.229Z,3.97
2023-02-27T01:37:15.757Z,3.42
2023-02-27T01:39:43.955Z,3.63
2023-02-27T01:42:25.866Z,4.13
2023-02-27T01:45:12.093Z,3.13
2023-02-27T01:47:47.270Z,3.30
2023-02-27T01:50:16.699Z,1.90
2023-02-27T01:52:47.142Z,2.58
2023-02-27T01:55:15.799Z,3.95
2023-02-27T01:57:46.429Z,7.28
2023-02-27T02:00:16.504Z,4.03
2023-02-27T02:03:08.660Z,3.80
2023-02-27T02:05:36.776Z,4.40
2023-02-27T02:08:05.540Z,3.63
2023-02-27T02:10:34.036Z,3.65
2023-02-27T02:13:04.879Z,4.82
2023-02-27T02:15:39.630Z,4.30
2023-02-27T02:18:34.072Z,4.15
2023-02-27T02:21:42.177Z,4.07
2023-02-27T02:24:57.551Z,4.72
2023-02-27T02:27:36.773Z,4.47
2023-02-27T02:30:35.360Z,5.38
2023-02-27T02:34:19.234Z,3.10
2023-02-27T02:37:01.334Z,5.28
2023-02-27T02:39:45.048Z,5.65
2023-02-27T02:42:36.928Z,4.78
2023-02-27T02:45:19.813Z,6.13
2023-02-27T02:47:52.888Z,5.97
2023-02-27T02:50:49.488Z,6.78
2023-02-27T02:53:41.700Z,4.30
2023-02-27T02:56:46.298Z,4.22
2023-02-27T02:59:31.020Z,6.20
2023-02-27T03:02:13.513Z,5.38
2023-02-27T03:04:58.492Z,7.60
2023-02-27T03:07:33.081Z,5.63
2023-02-27T03:10:09.187Z,5.88
2023-02-27T03:12:44.350Z,6.18
2023-02-27T03:15:16.084Z,6.20
2023-02-27T03:17:49.011Z,4.05
2023-02-27T03:20:27.708Z,4.97
2023-02-27T03:23:01.852Z,5.97
2023-02-27T03:25:29.673Z,4.68
2023-02-27T03:28:05.987Z,5.70
2023-02-27T03:30:41.534Z,5.03
2023-02-27T03:33:21.566Z,6.38
2023-02-27T03:36:02.948Z,5.43
2023-02-27T03:38:49.399Z,4.18
2023-02-27T03:41:39.835Z,5.85
2023-02-27T03:45:05.636Z,6.32
2023-02-27T03:47:34.621Z,5.15
2023-02-27T03:50:02.997Z,5.60
2023-02-27T03:52:31.581Z,5.38
2023-02-27T03:55:24.382Z,6.18
2023-02-27T03:57:53.163Z,5.35
2023-02-27T04:00:24.881Z,6.82
2023-02-27T04:02:56.616Z,8.18
2023-02-27T04:05:29.161Z,6.97
2023-02-27T04:08:19.448Z,6.57
2023-02-27T04:11:14.411Z,6.28
2023-02-27T04:14:30.982Z,8.23
2023-02-27T04:17:24.508Z,6.90
2023-02-27T04:20:10.624Z,13.57
2023-02-27T04:23:31.825Z,8.95
2023-02-27T04:26:08.104Z,7.50
2023-02-27T04:28:58.789Z,7.28
2023-02-27T04:31:48.090Z,8.23
2023-02-27T04:34:34.321Z,6.78
2023-02-27T04:37:21.110Z,7.55
2023-02-27T04:40:06.359Z,8.70
2023-02-27T04:42:40.309Z,7.63
2023-02-27T04:45:15.320Z,6.78
2023-02-27T04:48:03.550Z,6.15
2023-02-27T04:50:45.384Z,10.45
2023-02-27T04:53:56.493Z,7.75
2023-02-27T04:56:33.267Z,6.05
2023-02-27T04:59:09.444Z,10.65
2023-02-27T05:01:51.495Z,8.68
2023-02-27T05:04:22.896Z,7.47
2023-02-27T05:06:55.146Z,16.15
2023-02-27T05:09:49.559Z,8.02
2023-02-27T05:12:26.979Z,7.60
2023-02-27T05:15:58.862Z,7.90
2023-02-27T05:18:27.097Z,10.52
2023-02-27T05:21:22.228Z,6.15
2023-02-27T05:24:28.687Z,6.15
2023-02-27T05:27:17.910Z,6.63
2023-02-27T05:29:52.707Z,6.60
2023-02-27T05:32:33.937Z,8.75
2023-02-27T05:35:20.079Z,6.43
2023-02-27T05:38:11.642Z,6.47
2023-02-27T05:40:52.436Z,8.25
2023-02-27T05:43:26.837Z,8.68
2023-02-27T05:46:06.835Z,6.63
2023-02-27T05:48:42.904Z,6.43
2023-02-27T05:51:15.315Z,7.65
2023-02-27T05:53:51.172Z,6.20
2023-02-27T05:56:23.678Z,5.68
2023-02-27T05:59:17.372Z,5.95
2023-02-27T06:01:46.444Z,5.53
2023-02-27T06:04:14.376Z,6.03
2023-02-27T06:06:42.402Z,7.57
2023-02-27T06:09:10.144Z,6.72
2023-02-27T06:11:37.911Z,6.28
2023-02-27T06:14:05.429Z,6.30
2023-02-27T06:16:38.159Z,6.07
2023-02-27T06:19:06.738Z,10.63
2023-02-27T06:21:34.542Z,7.05
2023-02-27T06:24:01.996Z,7.10
2023-02-27T06:26:29.835Z,7.47
2023-02-27T06:28:57.388Z,10.50
2023-02-27T06:31:25.206Z,8.75
2023-02-27T06:33:52.765Z,7.97
2023-02-27T06:36:20.480Z,10.30
2023-02-27T06:38:47.984Z,6.97
2023-02-27T06:41:15.790Z,9.95
2023-02-27T06:43:43.357Z,8.95
2023-02-27T06:46:11.296Z,10.85
2023-02-27T06:48:38.838Z,6.30
2023-02-27T06:51:07.130Z,8.55
2023-02-27T06:53:34.718Z,7.45
2023-02-27T06:56:02.443Z,9.88
2023-02-27T06:58:30.040Z,9.80
2023-02-27T07:01:00.986Z,7.15
2023-02-27T07:03:28.577Z,8.95
2023-02-27T07:05:58.880Z,5.80
2023-02-27T07:08:26.411Z,9.45
2023-02-27T07:10:54.211Z,6.78
2023-02-27T07:13:21.800Z,8.50
2023-02-27T07:15:52.361Z,8.40
2023-02-27T07:18:20.213Z,7.40
2023-02-27T07:20:51.646Z,10.75
2023-02-27T07:23:19.277Z,13.07
2023-02-27T07:25:48.312Z,11.25
2023-02-27T07:28:16.186Z,9.80
2023-02-27T07:30:44.039Z,10.50
2023-02-27T07:33:11.796Z,10.63
2023-02-27T07:35:39.560Z,13.43
2023-02-27T07:38:07.109Z,8.77
2023-02-27T07:40:34.891Z,11.90
2023-02-27T07:43:02.321Z,10.32
2023-02-27T07:45:30.168Z,12.57
2023-02-27T07:47:57.645Z,17.90
2023-02-27T07:50:25.445Z,13.30
2023-02-27T07:52:53.356Z,8.23
2023-02-27T07:55:21.272Z,13.73
2023-02-27T07:57:48.723Z,10.73
2023-02-27T08:00:17.650Z,12.70
2023-02-27T08:02:45.498Z,11.38
2023-02-27T08:05:13.478Z,10.88
2023-02-27T08:07:40.942Z,9.90
2023-02-27T08:10:10.333Z,9.63
2023-02-27T08:12:38.012Z,16.77
2023-02-27T08:15:07.206Z,10.18
2023-02-27T08:17:34.639Z,8.77
2023-02-27T08:20:02.607Z,19.35
2023-02-27T08:22:30.095Z,10.15
2023-02-27T08:24:57.877Z,9.57
2023-02-27T08:27:25.419Z,8.82
2023-02-27T08:29:53.476Z,11.32
2023-02-27T08:32:21.139Z,10.38
2023-02-27T08:34:48.954Z,7.95
2023-02-27T08:37:16.383Z,9.05
2023-02-27T08:39:44.597Z,8.95
2023-02-27T08:42:12.115Z,8.95
2023-02-27T08:44:39.858Z,11.65
2023-02-27T08:47:07.482Z,11.73
2023-02-27T08:49:35.322Z,10.90
2023-02-27T08:52:04.168Z,10.38
2023-02-27T08:54:32.452Z,9.35
2023-02-27T08:56:59.931Z,11.27
2023-02-27T08:59:27.782Z,9.15
2023-02-27T09:01:55.401Z,8.13
2023-02-27T09:04:23.285Z,8.68
2023-02-27T09:06:50.742Z,8.45
2023-02-27T09:09:18.483Z,6.03
2023-02-27T09:11:46.365Z,11.77
2023-02-27T09:14:14.242Z,8.90
2023-02-27T09:16:42.055Z,8.40
2023-02-27T09:19:09.943Z,12.65
2023-02-27T09:21:37.527Z,11.32
2023-02-27T09:24:18.773Z,8.18
2023-02-27T09:26:49.823Z,7.05
2023-02-27T09:29:18.435Z,8.95
2023-02-27T09:31:46.326Z,9.88
2023-02-27T09:34:14.089Z,6.63
2023-02-27T09:36:41.637Z,10.55
2023-02-27T09:39:12.338Z,10.50
2023-02-27T09:42:11.770Z,7.20
2023-02-27T09:47:29.377Z,8.90
2023-02-27T09:50:05.461Z,17.50
2023-02-27T09:52:36.986Z,9.15
2023-02-27T09:55:21.626Z,14.10
2023-02-27T09:58:24.377Z,9.27
2023-02-27T10:00:58.918Z,10.13
2023-02-27T10:04:28.970Z,13.65
2023-02-27T10:07:05.358Z,14.20
2023-02-27T10:09:44.652Z,23.30
2023-02-27T10:12:35.908Z,11.32
2023-02-27T10:15:20.924Z,13.35
2023-02-27T10:17:54.857Z,10.73
2023-02-27T10:20:33.503Z,8.05
2023-02-27T10:23:12.491Z,9.10
2023-02-27T10:25:48.255Z,9.68
2023-02-27T10:28:20.741Z,8.18
2023-02-27T10:30:52.176Z,6.93
2023-02-27T10:33:42.567Z,6.95
2023-02-27T10:36:23.583Z,7.80
2023-02-27T10:39:06.920Z,12.13
2023-02-27T10:41:37.929Z,15.68
2023-02-27T10:44:06.289Z,9.77
2023-02-27T10:46:38.644Z,11.18
2023-02-27T10:49:20.403Z,9.50
2023-02-27T10:52:07.470Z,8.65
2023-02-27T10:54:35.897Z,10.30
2023-02-27T10:57:27.743Z,9.48
2023-02-27T11:00:06.923Z,9.27
2023-02-27T11:02:42.096Z,9.63
2023-02-27T11:05:32.679Z,8.88
2023-02-27T11:08:23.147Z,7.35
2023-02-27T11:11:27.585Z,8.05
2023-02-27T11:14:15.213Z,14.43
2023-02-27T11:16:51.166Z,12.70
2023-02-27T11:19:39.740Z,12.45
2023-02-27T11:22:17.295Z,13.18
2023-02-27T11:24:45.101Z,11.20
2023-02-27T11:27:30.243Z,10.35
2023-02-27T11:30:06.870Z,9.38
2023-02-27T11:32:45.829Z,7.00
2023-02-27T11:35:33.411Z,8.15
2023-02-27T11:38:16.792Z,7.90
2023-02-27T11:41:01.832Z,9.57
2023-02-27T11:43:48.247Z,6.75
2023-02-27T11:46:46.167Z,9.02
2023-02-27T11:49:19.794Z,9.15
2023-02-27T11:51:59.597Z,9.10
2023-02-27T11:54:48.747Z,11.35
2023-02-27T11:57:35.392Z,14.00
2023-02-27T12:00:26.285Z,8.90
2023-02-27T12:03:25.068Z,9.88
2023-02-27T12:06:01.746Z,15.18
2023-02-27T12:08:32.928Z,12.18
2023-02-27T12:11:29.803Z,12.30
2023-02-27T12:14:30.069Z,10.20
2023-02-27T12:17:29.694Z,12.57
2023-02-27T12:20:38.699Z,16.05
2023-02-27T12:23:26.455Z,12.50
2023-02-27T12:26:34.429Z,11.63
2023-02-27T12:29:36.007Z,10.20
2023-02-27T12:32:54.257Z,12.50
2023-02-27T12:35:33.117Z,14.35
2023-02-27T12:38:02.400Z,15.00
2023-02-27T12:40:39.342Z,10.13
2023-02-27T12:43:46.690Z,9.43
2023-02-27T12:46:28.268Z,13.70
2023-02-27T12:49:05.672Z,12.77
2023-02-27T12:52:15.982Z,13.52
2023-02-27T12:55:06.424Z,12.40
2023-02-27T12:58:01.869Z,13.25
2023-02-27T13:01:10.622Z,10.38
2023-02-27T13:04:02.030Z,10.15
2023-02-27T13:06:51.818Z,13.05
2023-02-27T13:09:33.766Z,10.93
2023-02-27T13:12:22.236Z,14.45
2023-02-27T13:15:18.707Z,13.13
2023-02-27T13:17:54.013Z,12.05
2023-02-27T13:20:21.742Z,11.43
2023-02-27T13:23:19.077Z,11.55
2023-02-27T13:25:51.311Z,9.07
2023-02-27T13:28:27.367Z,10.40
2023-02-27T13:31:28.627Z,10.98
2023-02-27T13:34:39.674Z,10.15
2023-02-27T13:37:09.926Z,7.97
2023-02-27T13:39:47.032Z,7.47
2023-02-27T13:42:26.968Z,7.60
2023-02-27T13:45:06.393Z,14.77
2023-02-27T13:47:47.644Z,10.88
2023-02-27T13:50:35.238Z,9.57
2023-02-27T13:53:16.301Z,9.73
2023-02-27T13:55:43.907Z,9.18
2023-02-27T13:58:19.598Z,10.45
2023-02-27T14:00:57.504Z,10.57
2023-02-27T14:03:32.114Z,9.00
2023-02-27T14:06:04.884Z,10.27
2023-02-27T14:09:08.858Z,7.70
2023-02-27T14:11:51.192Z,8.45
2023-02-27T14:14:50.144Z,7.43
2023-02-27T14:17:37.696Z,7.88
2023-02-27T14:20:16.967Z,9.15
2023-02-27T14:23:27.048Z,11.27
2023-02-27T14:26:00.104Z,10.35
2023-02-27T14:28:36.517Z,8.80
2023-02-27T14:31:45.247Z,10.27
2023-02-27T14:34:19.408Z,9.00
2023-02-27T14:37:17.338Z,10.10
2023-02-27T14:39:50.920Z,10.70
2023-02-27T14:42:52.070Z,12.15
2023-02-27T14:45:24.508Z,11.23
2023-02-27T14:47:53.514Z,10.48
2023-02-27T14:50:37.449Z,14.07
2023-02-27T14:53:07.754Z,13.70
2023-02-27T14:55:37.429Z,19.08
2023-02-27T14:58:16.402Z,15.88
2023-02-27T15:01:06.241Z,16.63
2023-02-27T15:03:46.793Z,16.83
2023-02-27T15:06:40.497Z,16.45
2023-02-27T15:09:08.954Z,17.23
2023-02-27T15:11:43.162Z,17.15
2023-02-27T15:14:22.154Z,16.92
2023-02-27T15:16:55.957Z,12.43
2023-02-27T15:19:28.177Z,13.32
2023-02-27T15:21:59.950Z,16.42
2023-02-27T15:24:49.761Z,13.38
2023-02-27T15:27:22.872Z,15.82
2023-02-27T15:30:00.022Z,18.15
2023-02-27T15:32:35.430Z,13.82
2023-02-27T15:35:12.214Z,14.73
2023-02-27T15:37:40.485Z,12.98
2023-02-27T15:40:17.713Z,13.20
2023-02-27T15:42:45.585Z,12.57
2023-02-27T15:45:20.901Z,12.45
2023-02-27T15:47:49.270Z,14.00
2023-02-27T15:50:17.235Z,14.07
2023-02-27T15:53:12.498Z,11.65
2023-02-27T15:55:47.144Z,11.45
2023-02-27T15:58:31.211Z,18.98
2023-02-27T16:01:29.981Z,27.92
2023-02-27T16:04:02.040Z,30.10
2023-02-27T16:06:35.273Z,26.60
2023-02-27T16:09:31.595Z,21.88
2023-02-27T16:12:22.101Z,18.35
2023-02-27T16:15:09.214Z,19.35
2023-02-27T16:17:37.141Z,15.55
2023-02-27T16:20:28.450Z,15.50
2023-02-27T16:23:23.645Z,20.70
2023-02-27T16:26:40.352Z,18.23
2023-02-27T16:29:21.827Z,16.92
2023-02-27T16:31:54.777Z,16.10
2023-02-27T16:34:47.602Z,20.08
2023-02-27T16:37:39.469Z,23.63
2023-02-27T16:40:37.758Z,20.45
2023-02-27T16:43:05.526Z,18.30
2023-02-27T16:45:33.673Z,17.27
2023-02-27T16:48:01.778Z,22.00
2023-02-27T16:50:39.018Z,20.52
2023-02-27T16:53:06.808Z,28.45
2023-02-27T16:55:39.220Z,31.60
2023-02-27T16:58:07.110Z,34.35
2023-02-27T17:00:35.337Z,26.70
2023-02-27T17:03:02.898Z,27.35
2023-02-27T17:05:30.932Z,36.97
2023-02-27T17:07:58.787Z,32.65
2023-02-27T17:10:27.280Z,32.33
2023-02-27T17:12:54.876Z,33.65
2023-02-27T17:15:22.760Z,36.92
2023-02-27T17:17:50.469Z,34.88
2023-02-27T17:20:18.561Z,32.17
2023-02-27T17:22:46.155Z,34.60
2023-02-27T17:25:14.746Z,34.58
2023-02-27T17:27:44.255Z,29.50
2023-02-27T17:30:14.524Z,30.65
2023-02-27T17:32:42.186Z,35.22
2023-02-27T17:35:11.141Z,27.80
2023-02-27T17:37:39.474Z,25.30
2023-02-27T17:40:08.474Z,30.10
2023-02-27T17:42:37.454Z,34.20
2023-02-27T17:45:07.926Z,42.22
2023-02-27T17:47:35.596Z,37.17
2023-02-27T17:50:05.333Z,35.25
2023-02-27T17:52:36.221Z,45.20
2023-02-27T17:55:05.077Z,39.70
2023-02-27T17:57:37.322Z,38.97
2023-02-27T18:00:10.280Z,38.00
2023-02-27T18:02:37.842Z,39.55
2023-02-27T18:05:06.671Z,39.88
2023-02-27T18:07:34.762Z,42.28
2023-02-27T18:10:05.630Z,35.70
2023-02-27T18:12:33.452Z,35.20
2023-02-27T18:15:02.508Z,35.53
2023-02-27T18:17:30.026Z,37.28
2023-02-27T18:19:58.252Z,41.33
2023-02-27T18:22:26.440Z,36.47
2023-02-27T18:24:55.348Z,39.15
2023-02-27T18:27:23.135Z,38.00
2023-02-27T18:29:50.979Z,37.20
2023-02-27T18:32:18.666Z,34.50
2023-02-27T18:34:46.609Z,39.45
2023-02-27T18:37:14.278Z,38.67
2023-02-27T18:39:44.274Z,36.25
2023-02-27T18:44:41.445Z,40.92
2023-02-27T18:47:11.617Z,36.65
2023-02-27T18:49:44.610Z,41.90
2023-02-27T18:52:13.907Z,35.20
2023-02-27T18:54:43.278Z,44.95
2023-02-27T18:57:11.013Z,43.65
2023-02-27T18:59:41.301Z,54.35
2023-02-27T19:02:17.520Z,50.22
2023-02-27T19:04:47.214Z,42.40
2023-02-27T19:07:16.303Z,44.38
2023-02-27T19:09:44.707Z,45.25
2023-02-27T19:12:12.680Z,50.63
2023-02-27T19:14:41.413Z,46.10
2023-02-27T19:17:09.165Z,47.72
2023-02-27T19:19:37.527Z,42.13
2023-02-27T19:22:05.237Z,44.88
2023-02-27T19:24:33.390Z,44.03
2023-02-27T19:27:01.182Z,42.83
2023-02-27T19:29:29.055Z,37.22
2023-02-27T19:31:56.602Z,38.60
2023-02-27T19:34:25.103Z,40.25
2023-02-27T19:36:53.039Z,37.22
2023-02-27T19:39:23.503Z,41.53
2023-02-27T19:41:51.254Z,36.22
2023-02-27T19:44:19.328Z,50.90
2023-02-27T19:46:51.475Z,50.33
2023-02-27T19:49:20.143Z,51.80
2023-02-27T19:51:47.788Z,52.97
2023-02-27T19:54:16.799Z,47.33
2023-02-27T19:56:44.449Z,43.03
2023-02-27T19:59:13.136Z,48.50
2023-02-27T20:01:41.584Z,45.47
2023-02-27T20:04:11.588Z,41.45
2023-02-27T20:06:44.042Z,40.60
2023-02-27T20:09:17.506Z,47.25
2023-02-27T20:11:47.798Z,46.70
2023-02-27T20:14:17.504Z,40.22
2023-02-27T20:16:46.275Z,45.05
2023-02-27T20:19:18.096Z,35.88
2023-02-27T20:21:47.171Z,33.05
2023-02-27T20:24:16.546Z,31.08
2023-02-27T20:26:50.188Z,31.27
2023-02-27T20:29:24.568Z,32.75
2023-02-27T20:31:55.542Z,30.80
2023-02-27T20:34:26.551Z,36.97
2023-02-27T20:37:03.257Z,37.40
2023-02-27T20:39:31.255Z,41.72
2023-02-27T20:41:58.937Z,39.25
2023-02-27T20:44:26.977Z,48.35
2023-02-27T20:46:54.693Z,40.78
2023-02-27T20:49:23.382Z,42.90
2023-02-27T20:51:51.077Z,41.85
2023-02-27T20:54:20.783Z,41.65
2023-02-27T20:59:22.197Z,37.60
2023-02-27T21:04:42.665Z,24.75
2023-02-27T21:07:14.153Z,27.10
2023-02-27T21:09:42.670Z,26.65
2023-02-27T21:12:12.308Z,28.08
2023-02-27T21:14:40.286Z,26.42
2023-02-27T21:17:08.200Z,26.08
2023-02-27T21:19:36.894Z,28.38
2023-02-27T21:22:04.579Z,30.05
2023-02-27T21:24:32.590Z,33.22
2023-02-27T21:27:00.314Z,31.73
2023-02-27T21:29:28.253Z,33.33
2023-02-27T21:31:55.856Z,35.25
2023-02-27T21:34:28.884Z,36.25
2023-02-27T21:36:56.696Z,33.45
2023-02-27T21:39:30.198Z,39.00
2023-02-27T21:41:59.660Z,31.55
2023-02-27T21:44:29.706Z,29.52
2023-02-27T21:49:28.934Z,39.75
2023-02-27T21:51:56.430Z,42.08
2023-02-27T21:54:24.531Z,42.03
2023-02-27T21:56:52.450Z,45.13
2023-02-27T21:59:21.714Z,45.55
2023-02-27T22:01:50.565Z,43.90
2023-02-27T22:04:20.668Z,44.58
2023-02-27T22:06:50.958Z,42.42
2023-02-27T22:09:19.557Z,44.38
2023-02-27T22:11:48.416Z,44.65
2023-02-27T22:14:16.936Z,44.45
2023-02-27T22:16:44.538Z,46.22
2023-02-27T22:19:19.758Z,47.97
2023-02-27T22:21:48.037Z,51.95
2023-02-27T22:24:16.487Z,42.58
2023-02-27T22:26:44.688Z,46.58
2023-02-27T22:29:12.565Z,50.50
2023-02-27T22:31:40.403Z,47.95
2023-02-27T22:34:15.195Z,48.00
2023-02-27T22:36:45.379Z,46.60
2023-02-27T22:39:13.651Z,45.22
2023-02-27T22:41:43.114Z,52.53
2023-02-27T22:44:15.525Z,56.90
2023-02-27T22:46:47.608Z,52.05
2023-02-27T22:49:22.757Z,45.90
2023-02-27T22:51:52.206Z,40.78
2023-02-27T22:54:23.223Z,36.30
2023-02-27T22:56:53.966Z,34.38
2023-02-27T22:59:23.309Z,28.40
2023-02-27T23:01:51.587Z,28.27
2023-02-27T23:04:22.290Z,28.33
2023-02-27T23:06:52.698Z,31.23
2023-02-27T23:09:25.464Z,30.63
2023-02-27T23:11:55.135Z,27.77
2023-02-27T23:14:23.807Z,29.45
2023-02-27T23:16:51.649Z,28.65
2023-02-27T23:19:21.214Z,21.65
2023-02-27T23:21:49.254Z,24.25
2023-02-27T23:24:19.604Z,20.08
2023-02-27T23:26:50.584Z,24.95
2023-02-27T23:29:18.753Z,20.90
2023-02-27T23:31:46.755Z,23.02
2023-02-27T23:34:14.696Z,23.63
2023-02-27T23:36:42.206Z,28.40
2023-02-27T23:39:10.463Z,23.58
2023-02-27T23:41:38.186Z,24.48
2023-02-27T23:44:06.357Z,28.45
2023-02-27T23:46:34.049Z,25.52
2023-02-27T23:49:02.915Z,26.90
2023-02-27T23:51:31.141Z,22.90
2023-02-27T23:54:00.250Z,27.33
2023-02-27T23:56:30.642Z,27.20
2023-02-27T23:59:05.229Z,24.38
